マナウス の空港の天気 - METARとTAF

エドワルド ゴメス国際空港(マナウス) ( SBEG / MAO ) - ブラジル アマゾナス州マナウス
飛行場実況気象(Metar)
観測時間12/10 01:00 AMT (12/10 05:00 UTC)
風向・風速北西 2m/s
視程10km以上
天気現象
少しの雲 雲底高度 370m
全天の8割程度の雲 雲底高度 2440m
気温24℃
湿度94%
気圧1013hPa
METARSBEG 100500Z 31003KT 9999 FEW012 BKN080 24/23 Q1013
過去の天気等 Google飛行場航空写真 Wunderground天気予報

過去48時間のMETAR

飛行場予報(TAF)
発表時間: 12/10 00:00 AMT (12/10 04:00 UTC)
予報対象時間: 10日2時 AMT ~ 11日2時 AMT
風向・風速静穏
視程10km以上
少しの雲 雲底高度 460m
10日6時 AMT ~ 10日8時 AMT に徐々に
風向・風速北 3m/s
全天の8割程度の雲 雲底高度 460m
10日11時 AMT ~ 10日13時 AMT に徐々に
風向・風速東北東 4m/s
全天の4割程度の雲 雲底高度 610m
少しの塔状積雲 雲底高度 760m
10日14時 AMT から 確率 30% で
天気現象
全天の8割程度の雲 雲底高度 610m
少しの積乱雲 雲底高度 760m
10日18時 AMT ~ 10日20時 AMT に徐々に
風向・風速静穏
少しの雲 雲底高度 460m
TAF SBEG 100400Z 1006/1106 00000KT 9999 FEW015 TN23/1008Z TX30/1017Z
BECMG 1010/1012 36005KT BKN015
BECMG 1015/1017 07008KT SCT020 FEW025TCU
PROB30 1018/1020 TS BKN020 FEW025CB
BECMG 1022/1024 00000KT FEW015 RMK PEH